Decoded Metar for K1P1 (PLYMOUTH in NH, USA) (IATA:1P1) | Meteo·Mobile Aviation Weather
aviador You're here:

K1P1 Decoded Metar

PLYMOUTH in NH, USA
Report Time2018-09-19 14:15:00
UTC Time2018-09-19 14:38:08
Flight Rules vfr VFR
Wind110° at 03 kt
W.Rank110° ranks 9
Current wind is below 110° avg. (4.6)
Visibility9999 m
Phenomena:N/A
Clouds:Scattered 014 Hf
Overcast 046 Hf
Expected CloudBase > 800 ft AGL from Temp-Dew spread
Ceiling4,600 ft
Temp18°C (ISA +4)
Dew Point16°C (88% RH)
QNH1015 hPa
Density Alt1,152 ft
Elevation505 ft
Report Wrong Elevation
Raw Report
K1P1 191415Z AUTO 11003KT 10SM SCT014 OVC046 18/16 A2996 RMK AO2
T01760155=

Extra information for K1P1:More info

Metar Taf Metar & Taf Last 4 Metars F.Rules Stats Wind Profile Meteogram Temp Stats Airport Information Weather charts Add Link Nearby VenuesMetar ALERT Operation Metar Decoded Social comments

AIRNAV info for K1P1